Wetterdaten: Woche 03.07.17 - 09.07.17 (KW27)
Datum Zeit Temperatur Luftfeuchte Luftdruck Niederschlag Windrichtung Sonnenschein Solar Wind
03.07.2017 00:00 13,8 C 97 % 1020,9 hPa 0,2 l/m N 0,00 h 0 W/m 1,3 km/h (1 Bft)
03.07.2017 01:00 13,7 C 98 % 1021,0 hPa 0,0 l/m W 0,00 h 0 W/m 7,9 km/h (2 Bft)
03.07.2017 02:00 13,5 C 98 % 1021,3 hPa 0,2 l/m W-SW 0,00 h 0 W/m 4,3 km/h (1 Bft)
03.07.2017 03:00 13,3 C 98 % 1021,3 hPa 0,0 l/m N 0,00 h 0 W/m 0,1 km/h (0 Bft)
03.07.2017 04:00 13,3 C 98 % 1021,3 hPa 0,0 l/m N 0,00 h 0 W/m 0,1 km/h (0 Bft)
03.07.2017 05:00 13,3 C 98 % 1021,4 hPa 0,0 l/m N 0,00 h 9 W/m 0,5 km/h (0 Bft)
03.07.2017 06:00 13,4 C 98 % 1021,5 hPa 0,0 l/m W-SW 0,00 h 50 W/m 0,5 km/h (0 Bft)
03.07.2017 07:00 13,8 C 98 % 1021,9 hPa 0,0 l/m N 0,08 h 144 W/m 1,3 km/h (1 Bft)
03.07.2017 08:00 14,7 C 95 % 1022,1 hPa 0,0 l/m W-SW 0,00 h 193 W/m 2,3 km/h (1 Bft)
03.07.2017 09:00 15,6 C 90 % 1022,1 hPa 0,0 l/m W-SW 0,58 h 326 W/m 3,3 km/h (1 Bft)
03.07.2017 10:00 17,3 C 82 % 1021,8 hPa 0,0 l/m W-SW 0,42 h 545 W/m 10,5 km/h (2 Bft)
03.07.2017 11:00 18,5 C 76 % 1021,6 hPa 0,0 l/m SW 0,58 h 764 W/m 13,4 km/h (3 Bft)
03.07.2017 12:00 19,0 C 71 % 1021,2 hPa 0,0 l/m SW 0,17 h 325 W/m 12,5 km/h (3 Bft)
03.07.2017 13:00 19,2 C 70 % 1021,0 hPa 0,0 l/m SW 0,25 h 505 W/m 7,6 km/h (2 Bft)
03.07.2017 14:00 21,1 C 63 % 1020,5 hPa 0,0 l/m S-SW 0,58 h 683 W/m 14,9 km/h (3 Bft)
03.07.2017 15:00 20,8 C 62 % 1020,1 hPa 0,0 l/m W-SW 0,50 h 616 W/m 9,0 km/h (2 Bft)
03.07.2017 16:00 21,4 C 60 % 1019,6 hPa 0,0 l/m W 0,25 h 360 W/m 10,9 km/h (2 Bft)
03.07.2017 17:00 20,6 C 63 % 1019,3 hPa 0,0 l/m W-SW 0,08 h 208 W/m 6,8 km/h (2 Bft)
03.07.2017 18:00 20,8 C 64 % 1019,2 hPa 0,0 l/m W-SW 0,08 h 189 W/m 3,7 km/h (1 Bft)
03.07.2017 19:00 20,0 C 66 % 1019,1 hPa 0,0 l/m W-SW 0,25 h 122 W/m 5,9 km/h (2 Bft)
03.07.2017 20:00 19,1 C 69 % 1019,0 hPa 0,0 l/m W-SW 0,08 h 42 W/m 6,7 km/h (2 Bft)
03.07.2017 21:00 17,2 C 75 % 1019,2 hPa 0,0 l/m W-SW 0,08 h 8 W/m 7,1 km/h (2 Bft)
03.07.2017 22:00 15,9 C 81 % 1019,5 hPa 0,0 l/m W-SW 0,00 h 0 W/m 1,5 km/h (1 Bft)
03.07.2017 23:00 14,9 C 87 % 1019,5 hPa 0,0 l/m W-SW 0,00 h 0 W/m 0,4 km/h (0 Bft)
04.07.2017 00:00 13,5 C 91 % 1019,7 hPa 0,0 l/m N 0,00 h 0 W/m 0,0 km/h (0 Bft)
04.07.2017 01:00 12,5 C 93 % 1019,6 hPa 0,0 l/m N 0,00 h 0 W/m 0,0 km/h (0 Bft)
04.07.2017 02:00 11,9 C 95 % 1019,6 hPa 0,0 l/m N 0,00 h 0 W/m 0,0 km/h (0 Bft)
04.07.2017 03:00 11,5 C 95 % 1019,5 hPa 0,0 l/m N 0,00 h 0 W/m 0,0 km/h (0 Bft)
04.07.2017 04:00 11,2 C 95 % 1019,5 hPa 0,0 l/m N 0,00 h 0 W/m 0,0 km/h (0 Bft)
04.07.2017 05:00 11,0 C 96 % 1019,5 hPa 0,0 l/m N 0,00 h 9 W/m 0,0 km/h (0 Bft)
04.07.2017 06:00 11,0 C 96 % 1019,8 hPa 0,0 l/m N 0,00 h 40 W/m 0,0 km/h (0 Bft)
04.07.2017 07:00 12,4 C 97 % 1020,1 hPa 0,0 l/m N 0,00 h 116 W/m 0,0 km/h (0 Bft)
04.07.2017 08:00 15,9 C 90 % 1020,1 hPa 0,0 l/m W-SW 1,00 h 424 W/m 5,0 km/h (1 Bft)
04.07.2017 09:00 19,1 C 79 % 1019,8 hPa 0,0 l/m SW 0,75 h 441 W/m 7,6 km/h (2 Bft)
04.07.2017 10:00 20,9 C 69 % 1019,5 hPa 0,0 l/m SW 0,67 h 566 W/m 7,4 km/h (2 Bft)
04.07.2017 11:00 20,7 C 67 % 1019,1 hPa 0,0 l/m SW 0,25 h 438 W/m 5,9 km/h (2 Bft)
04.07.2017 12:00 22,1 C 62 % 1018,9 hPa 0,0 l/m W-SW 0,50 h 656 W/m 10,2 km/h (2 Bft)
04.07.2017 13:00 23,0 C 59 % 1018,4 hPa 0,0 l/m SW 0,58 h 645 W/m 8,9 km/h (2 Bft)
04.07.2017 14:00 23,8 C 56 % 1018,0 hPa 0,0 l/m W-SW 0,67 h 680 W/m 7,9 km/h (2 Bft)
04.07.2017 15:00 24,8 C 53 % 1017,6 hPa 0,0 l/m W-SW 0,67 h 640 W/m 10,1 km/h (2 Bft)
04.07.2017 16:00 26,0 C 49 % 1017,2 hPa 0,0 l/m S-SW 1,00 h 733 W/m 8,6 km/h (2 Bft)
04.07.2017 17:00 26,0 C 48 % 1016,9 hPa 0,0 l/m O 0,83 h 499 W/m 8,4 km/h (2 Bft)
04.07.2017 18:00 25,7 C 49 % 1016,5 hPa 0,0 l/m O 0,92 h 330 W/m 7,4 km/h (2 Bft)
04.07.2017 19:00 24,6 C 53 % 1016,3 hPa 0,0 l/m O-SO 0,83 h 179 W/m 4,1 km/h (1 Bft)
04.07.2017 20:00 21,8 C 69 % 1016,3 hPa 0,0 l/m N 0,00 h 38 W/m 0,0 km/h (0 Bft)
04.07.2017 21:00 19,0 C 77 % 1016,5 hPa 0,0 l/m N 0,08 h 9 W/m 0,0 km/h (0 Bft)
04.07.2017 22:00 17,3 C 81 % 1017,0 hPa 0,0 l/m SO 0,00 h 0 W/m 0,9 km/h (0 Bft)
04.07.2017 23:00 16,4 C 85 % 1017,0 hPa 0,0 l/m N 0,00 h 0 W/m 0,0 km/h (0 Bft)
05.07.2017 00:00 15,8 C 88 % 1016,8 hPa 0,0 l/m N 0,00 h 0 W/m 0,0 km/h (0 Bft)
05.07.2017 01:00 15,0 C 90 % 1016,6 hPa 0,0 l/m N 0,00 h 0 W/m 0,1 km/h (0 Bft)
05.07.2017 02:00 14,7 C 91 % 1016,6 hPa 0,0 l/m N 0,00 h 0 W/m 0,0 km/h (0 Bft)
05.07.2017 03:00 14,0 C 91 % 1016,3 hPa 0,0 l/m N 0,00 h 0 W/m 0,0 km/h (0 Bft)
05.07.2017 04:00 13,3 C 92 % 1016,0 hPa 0,0 l/m N 0,00 h 0 W/m 0,0 km/h (0 Bft)
05.07.2017 05:00 12,7 C 93 % 1015,8 hPa 0,0 l/m N 0,25 h 15 W/m 0,0 km/h (0 Bft)
05.07.2017 06:00 12,6 C 94 % 1015,9 hPa 0,0 l/m N 0,92 h 95 W/m 0,0 km/h (0 Bft)
05.07.2017 07:00 15,0 C 91 % 1016,1 hPa 0,0 l/m N 0,75 h 231 W/m 0,0 km/h (0 Bft)
05.07.2017 08:00 18,1 C 84 % 1016,0 hPa 0,0 l/m SO 1,00 h 432 W/m 3,6 km/h (1 Bft)
05.07.2017 09:00 21,3 C 75 % 1016,0 hPa 0,0 l/m SO 0,75 h 446 W/m 3,7 km/h (1 Bft)
05.07.2017 10:00 23,3 C 69 % 1015,9 hPa 0,0 l/m S-SW 0,92 h 589 W/m 11,2 km/h (2 Bft)
05.07.2017 11:00 24,7 C 67 % 1015,8 hPa 0,0 l/m SW 1,00 h 797 W/m 14,0 km/h (3 Bft)
05.07.2017 12:00 26,3 C 59 % 1015,4 hPa 0,0 l/m S-SW 1,00 h 871 W/m 14,4 km/h (3 Bft)
05.07.2017 13:00 27,5 C 52 % 1014,9 hPa 0,0 l/m SW 1,00 h 885 W/m 15,6 km/h (3 Bft)
05.07.2017 14:00 28,4 C 50 % 1014,5 hPa 0,0 l/m SW 1,00 h 853 W/m 16,1 km/h (3 Bft)
05.07.2017 15:00 28,9 C 49 % 1014,1 hPa 0,0 l/m S-SW 1,00 h 822 W/m 15,7 km/h (3 Bft)
05.07.2017 16:00 28,5 C 48 % 1013,9 hPa 0,0 l/m O-NO 0,58 h 491 W/m 12,9 km/h (3 Bft)
05.07.2017 17:00 26,8 C 52 % 1014,1 hPa 0,0 l/m O 0,58 h 399 W/m 7,9 km/h (2 Bft)
05.07.2017 18:00 27,7 C 53 % 1013,8 hPa 0,0 l/m S-SO 0,92 h 333 W/m 6,8 km/h (2 Bft)
05.07.2017 19:00 26,4 C 57 % 1013,6 hPa 0,0 l/m SW 0,33 h 129 W/m 5,5 km/h (1 Bft)
05.07.2017 20:00 23,9 C 66 % 1013,7 hPa 0,0 l/m SW 0,33 h 59 W/m 2,7 km/h (1 Bft)
05.07.2017 21:00 21,2 C 75 % 1014,1 hPa 0,0 l/m N 0,17 h 10 W/m 0,0 km/h (0 Bft)
05.07.2017 22:00 20,2 C 74 % 1014,8 hPa 0,0 l/m W-SW 0,00 h 0 W/m 3,5 km/h (1 Bft)
05.07.2017 23:00 18,9 C 83 % 1015,4 hPa 0,0 l/m N 0,00 h 0 W/m 0,0 km/h (0 Bft)
06.07.2017 00:00 17,9 C 87 % 1015,3 hPa 0,0 l/m N 0,00 h 0 W/m 0,0 km/h (0 Bft)
06.07.2017 01:00 17,0 C 90 % 1015,3 hPa 0,0 l/m N 0,00 h 0 W/m 0,0 km/h (0 Bft)
06.07.2017 02:00 16,1 C 93 % 1015,3 hPa 0,0 l/m N 0,00 h 0 W/m 0,0 km/h (0 Bft)
06.07.2017 03:00 15,4 C 94 % 1015,4 hPa 0,0 l/m N 0,00 h 0 W/m 0,0 km/h (0 Bft)
06.07.2017 04:00 14,9 C 95 % 1015,3 hPa 0,0 l/m N 0,00 h 0 W/m 0,0 km/h (0 Bft)
06.07.2017 05:00 14,3 C 96 % 1015,5 hPa 0,0 l/m N 0,25 h 14 W/m 0,0 km/h (0 Bft)
06.07.2017 06:00 14,7 C 97 % 1015,6 hPa 0,0 l/m N 0,92 h 89 W/m 0,0 km/h (0 Bft)
06.07.2017 07:00 17,3 C 91 % 1016,0 hPa 0,0 l/m N 0,75 h 222 W/m 0,0 km/h (0 Bft)
06.07.2017 08:00 20,4 C 80 % 1016,0 hPa 0,0 l/m W-SW 1,00 h 420 W/m 3,2 km/h (1 Bft)
06.07.2017 09:00 22,8 C 72 % 1016,2 hPa 0,0 l/m W-SW 0,75 h 447 W/m 6,7 km/h (2 Bft)
06.07.2017 10:00 24,8 C 69 % 1016,1 hPa 0,0 l/m SW 0,92 h 624 W/m 8,4 km/h (2 Bft)
06.07.2017 11:00 26,9 C 63 % 1015,7 hPa 0,0 l/m SW 1,00 h 797 W/m 10,2 km/h (2 Bft)
06.07.2017 12:00 28,5 C 58 % 1015,3 hPa 0,0 l/m S-SW 1,00 h 853 W/m 10,0 km/h (2 Bft)
06.07.2017 13:00 29,6 C 51 % 1015,2 hPa 0,0 l/m S-SW 1,00 h 844 W/m 12,5 km/h (3 Bft)
06.07.2017 14:00 29,6 C 47 % 1014,9 hPa 0,0 l/m S-SW 0,42 h 523 W/m 12,0 km/h (2 Bft)
06.07.2017 15:00 28,5 C 48 % 1014,7 hPa 0,0 l/m NO 0,17 h 326 W/m 13,4 km/h (3 Bft)
06.07.2017 16:00 29,0 C 46 % 1014,1 hPa 0,0 l/m NO 0,92 h 663 W/m 3,5 km/h (1 Bft)
06.07.2017 17:00 30,7 C 41 % 1013,6 hPa 0,0 l/m NO 1,00 h 505 W/m 8,6 km/h (2 Bft)
06.07.2017 18:00 30,3 C 41 % 1013,2 hPa 0,0 l/m NO 0,92 h 328 W/m 9,7 km/h (2 Bft)
06.07.2017 19:00 29,2 C 44 % 1013,2 hPa 0,0 l/m O 0,67 h 162 W/m 7,1 km/h (2 Bft)
06.07.2017 20:00 25,9 C 62 % 1013,2 hPa 0,0 l/m N 0,00 h 40 W/m 2,3 km/h (1 Bft)
06.07.2017 21:00 22,2 C 73 % 1013,4 hPa 0,0 l/m N 0,08 h 9 W/m 0,0 km/h (0 Bft)
06.07.2017 22:00 20,6 C 77 % 1014,0 hPa 0,0 l/m N 0,00 h 0 W/m 0,0 km/h (0 Bft)
06.07.2017 23:00 19,4 C 81 % 1013,9 hPa 0,0 l/m N 0,00 h 0 W/m 0,0 km/h (0 Bft)
07.07.2017 00:00 18,3 C 87 % 1014,0 hPa 0,0 l/m N 0,00 h 0 W/m 0,0 km/h (0 Bft)
07.07.2017 01:00 17,8 C 89 % 1014,1 hPa 0,0 l/m N 0,00 h 0 W/m 0,0 km/h (0 Bft)
07.07.2017 02:00 17,2 C 90 % 1013,8 hPa 0,0 l/m N 0,00 h 0 W/m 0,0 km/h (0 Bft)
07.07.2017 03:00 17,0 C 92 % 1013,8 hPa 0,0 l/m N 0,00 h 0 W/m 0,7 km/h (0 Bft)
07.07.2017 04:00 16,9 C 90 % 1013,8 hPa 0,0 l/m N 0,00 h 0 W/m 0,1 km/h (0 Bft)
07.07.2017 05:00 16,0 C 92 % 1014,1 hPa 0,0 l/m O 0,00 h 10 W/m 0,8 km/h (0 Bft)
07.07.2017 06:00 16,5 C 92 % 1014,3 hPa 0,0 l/m N 0,33 h 57 W/m 0,0 km/h (0 Bft)
07.07.2017 07:00 18,1 C 88 % 1014,6 hPa 0,0 l/m N 0,00 h 99 W/m 0,0 km/h (0 Bft)
07.07.2017 08:00 20,3 C 82 % 1014,8 hPa 0,0 l/m N 0,50 h 338 W/m 0,8 km/h (0 Bft)
07.07.2017 09:00 24,0 C 68 % 1014,6 hPa 0,0 l/m SW 0,83 h 496 W/m 9,4 km/h (2 Bft)
07.07.2017 10:00 24,9 C 59 % 1014,5 hPa 0,0 l/m W-SW 0,25 h 371 W/m 15,7 km/h (3 Bft)
07.07.2017 11:00 24,6 C 60 % 1014,6 hPa 0,0 l/m W-SW 0,00 h 339 W/m 17,0 km/h (3 Bft)
07.07.2017 12:00 25,0 C 61 % 1014,6 hPa 0,0 l/m SW 0,17 h 423 W/m 19,0 km/h (3 Bft)
07.07.2017 13:00 26,3 C 59 % 1014,5 hPa 0,0 l/m W-SW 0,50 h 609 W/m 19,7 km/h (3 Bft)
07.07.2017 14:00 27,8 C 58 % 1014,1 hPa 0,0 l/m SW 0,58 h 657 W/m 20,1 km/h (4 Bft)
07.07.2017 15:00 26,0 C 66 % 1013,8 hPa 0,8 l/m W-SW 0,00 h 262 W/m 16,4 km/h (3 Bft)
07.07.2017 16:00 22,7 C 87 % 1013,7 hPa 2,2 l/m O-NO 0,00 h 161 W/m 9,1 km/h (2 Bft)
07.07.2017 17:00 23,5 C 86 % 1013,3 hPa 0,0 l/m N 0,67 h 442 W/m 2,8 km/h (1 Bft)
07.07.2017 18:00 25,7 C 79 % 1012,6 hPa 0,0 l/m N 0,83 h 305 W/m 0,1 km/h (0 Bft)
07.07.2017 19:00 25,8 C 83 % 1012,5 hPa 0,0 l/m N 0,50 h 153 W/m 0,8 km/h (0 Bft)
07.07.2017 20:00 23,6 C 89 % 1012,7 hPa 0,0 l/m O 0,00 h 23 W/m 0,8 km/h (0 Bft)
07.07.2017 21:00 22,4 C 84 % 1013,3 hPa 0,0 l/m N 0,08 h 12 W/m 5,1 km/h (1 Bft)
07.07.2017 22:00 21,4 C 82 % 1014,3 hPa 0,0 l/m N 0,00 h 0 W/m 3,1 km/h (1 Bft)
07.07.2017 23:00 18,9 C 91 % 1015,0 hPa 0,0 l/m N 0,00 h 0 W/m 0,5 km/h (0 Bft)
08.07.2017 00:00 18,0 C 93 % 1015,0 hPa 0,0 l/m N 0,00 h 0 W/m 0,0 km/h (0 Bft)
08.07.2017 01:00 17,7 C 94 % 1015,0 hPa 0,0 l/m N 0,00 h 0 W/m 0,0 km/h (0 Bft)
08.07.2017 02:00 17,9 C 94 % 1014,8 hPa 0,0 l/m N 0,00 h 0 W/m 0,0 km/h (0 Bft)
08.07.2017 03:00 17,7 C 95 % 1014,7 hPa 0,0 l/m N 0,00 h 0 W/m 0,0 km/h (0 Bft)
08.07.2017 04:00 17,4 C 95 % 1014,6 hPa 0,0 l/m N 0,00 h 0 W/m 0,3 km/h (0 Bft)
08.07.2017 05:00 17,0 C 97 % 1014,6 hPa 0,0 l/m N 0,08 h 11 W/m 0,0 km/h (0 Bft)
08.07.2017 06:00 17,0 C 97 % 1014,5 hPa 0,0 l/m N 0,08 h 52 W/m 0,0 km/h (0 Bft)
08.07.2017 07:00 18,5 C 95 % 1014,6 hPa 0,0 l/m N 0,33 h 143 W/m 0,0 km/h (0 Bft)
08.07.2017 08:00 19,6 C 92 % 1014,8 hPa 0,0 l/m N 0,00 h 121 W/m 0,3 km/h (0 Bft)
08.07.2017 09:00 21,6 C 88 % 1014,9 hPa 0,0 l/m N 0,33 h 348 W/m 0,8 km/h (0 Bft)
08.07.2017 10:00 25,2 C 75 % 1014,6 hPa 0,0 l/m SW 0,83 h 622 W/m 6,7 km/h (2 Bft)
08.07.2017 11:00 27,0 C 69 % 1014,2 hPa 0,0 l/m SW 0,75 h 662 W/m 12,5 km/h (3 Bft)
08.07.2017 12:00 27,7 C 60 % 1013,9 hPa 0,0 l/m SW 0,75 h 724 W/m 16,0 km/h (3 Bft)
08.07.2017 13:00 28,8 C 53 % 1013,5 hPa 0,4 l/m W-SW 0,58 h 570 W/m 18,4 km/h (3 Bft)
08.07.2017 14:00 23,6 C 79 % 1013,2 hPa 0,8 l/m W-SW 0,17 h 302 W/m 12,6 km/h (3 Bft)
08.07.2017 15:00 24,3 C 75 % 1012,8 hPa 0,0 l/m SW 0,67 h 654 W/m 11,5 km/h (2 Bft)
08.07.2017 16:00 26,4 C 68 % 1012,1 hPa 0,0 l/m SW 0,42 h 413 W/m 7,8 km/h (2 Bft)
08.07.2017 17:00 26,1 C 71 % 1011,8 hPa 0,0 l/m S 0,17 h 223 W/m 6,2 km/h (2 Bft)
08.07.2017 18:00 22,5 C 82 % 1012,8 hPa 0,4 l/m S-SW 0,00 h 46 W/m 14,0 km/h (3 Bft)
08.07.2017 19:00 19,9 C 89 % 1013,3 hPa 0,0 l/m S-SW 0,00 h 43 W/m 12,0 km/h (2 Bft)
08.07.2017 20:00 18,9 C 87 % 1014,7 hPa 0,2 l/m SW 0,00 h 8 W/m 27,0 km/h (4 Bft)
08.07.2017 21:00 16,9 C 93 % 1014,0 hPa 0,2 l/m S-SO 0,00 h 13 W/m 8,9 km/h (2 Bft)
08.07.2017 22:00 17,0 C 95 % 1013,8 hPa 0,0 l/m S-SO 0,00 h 0 W/m 4,2 km/h (1 Bft)
08.07.2017 23:00 17,1 C 96 % 1013,2 hPa 0,0 l/m N 0,00 h 0 W/m 0,0 km/h (0 Bft)
09.07.2017 00:00 17,0 C 97 % 1013,1 hPa 0,0 l/m S-SO 0,00 h 0 W/m 1,1 km/h (0 Bft)
09.07.2017 01:00 16,3 C 97 % 1012,4 hPa 0,0 l/m N 0,00 h 0 W/m 0,3 km/h (0 Bft)
09.07.2017 02:00 16,2 C 98 % 1012,3 hPa 0,0 l/m N 0,00 h 0 W/m 0,1 km/h (0 Bft)
09.07.2017 03:00 16,5 C 98 % 1011,8 hPa 0,0 l/m N 0,00 h 0 W/m 0,1 km/h (0 Bft)
09.07.2017 04:00 16,4 C 98 % 1012,0 hPa 0,0 l/m W-SW 0,00 h 0 W/m 4,4 km/h (1 Bft)
09.07.2017 05:00 17,0 C 97 % 1012,5 hPa 0,0 l/m W-SW 0,00 h 5 W/m 3,1 km/h (1 Bft)
09.07.2017 06:00 17,2 C 97 % 1013,0 hPa 0,4 l/m W-SW 0,00 h 22 W/m 8,6 km/h (2 Bft)
09.07.2017 07:00 17,8 C 97 % 1014,0 hPa 0,0 l/m W-SW 0,00 h 68 W/m 18,2 km/h (3 Bft)
09.07.2017 08:00 17,9 C 97 % 1012,1 hPa 0,2 l/m S 0,00 h 83 W/m 15,4 km/h (3 Bft)
09.07.2017 09:00 18,5 C 94 % 1011,6 hPa 0,0 l/m S 0,08 h 258 W/m 8,3 km/h (2 Bft)
09.07.2017 10:00 20,8 C 85 % 1011,8 hPa 0,0 l/m W-SW 0,83 h 463 W/m 8,9 km/h (2 Bft)
09.07.2017 11:00 23,0 C 78 % 1011,4 hPa 0,0 l/m W-SW 1,00 h 736 W/m 7,9 km/h (2 Bft)
09.07.2017 12:00 25,2 C 71 % 1010,6 hPa 0,0 l/m S-SO 0,75 h 719 W/m 11,0 km/h (2 Bft)
09.07.2017 13:00 26,8 C 67 % 1010,1 hPa 0,0 l/m SW 0,92 h 846 W/m 10,9 km/h (2 Bft)
09.07.2017 14:00 27,5 C 63 % 1010,0 hPa 0,0 l/m SW 0,67 h 665 W/m 14,5 km/h (3 Bft)
09.07.2017 15:00 26,6 C 61 % 1009,8 hPa 0,0 l/m W-SW 0,67 h 437 W/m 25,4 km/h (4 Bft)
09.07.2017 16:00 25,0 C 69 % 1010,1 hPa 0,0 l/m W-SW 0,33 h 370 W/m 20,6 km/h (4 Bft)
09.07.2017 17:00 25,1 C 71 % 1008,8 hPa 0,0 l/m NO 0,17 h 257 W/m 11,7 km/h (2 Bft)
09.07.2017 18:00 24,5 C 65 % 1008,7 hPa 0,0 l/m O 0,33 h 239 W/m 9,8 km/h (2 Bft)
09.07.2017 19:00 22,8 C 68 % 1008,2 hPa 0,0 l/m N 0,00 h 57 W/m 1,1 km/h (0 Bft)
09.07.2017 20:00 21,7 C 74 % 1008,4 hPa 0,0 l/m N 0,00 h 15 W/m 1,1 km/h (0 Bft)
09.07.2017 21:00 19,4 C 88 % 1009,2 hPa 19,2 l/m W 0,00 h 0 W/m 12,1 km/h (2 Bft)
09.07.2017 22:00 16,7 C 96 % 1009,5 hPa 11,4 l/m N 0,00 h 0 W/m 14,6 km/h (3 Bft)
09.07.2017 23:00 16,9 C 97 % 1008,8 hPa 0,2 l/m N 0,00 h 0 W/m 1,7 km/h (1 Bft)
Min-Datum _ 04.07.17 06.07.17 09.07.17 - - - - 03.07.17
_ Min-Zeit 05:50 17:00 19:15 - - - - 00:00
Minimum _ 10,9 C 36 % 1008,1 hPa - - - - 0,0 km/h (0 Bft)
Max-Datum _ 06.07.17 03.07.17 03.07.17 09.07.17 - 03.07.17 03.07.17 08.07.17
_ Max-Zeit 17:20 07:20 08:35 21:55 - 07:15 13:20 20:25
Maximum _ 31,2 C 99 % 1022,2 hPa 19,2 l/m - 0,08 h 1162 W/m 48,3 km/h
SW (6 Bft)
Durchschnitt _ 20,3 C 78 % 1015,4 hPa #36,8 l/m W-SW #53:10 h 346 W/m 5,8 km/h (2 Bft)